Time;durP1;ratioP1;P1;durP2;ratioP2;P2;SDS_P1;SDS_P2;PMS_P1;PMS_P2;Temp;Humidity;BMP_temperature;BMP_pressure;BME280_temperature;BME280_humidity;BME280_pressure;Samples;Min_cycle;Max_cycle;Signal;HPM_P1;HPM_P2
2023/07/29 00:00:06;;;;;;;34.23;16.00;;;;;;;16.12;100.00;99422.38;4234285;28;23638;-68
2023/07/29 00:02:33;;;;;;;26.07;12.90;;;;;;;16.19;100.00;99419.69;4246887;28;20275;-67
2023/07/29 00:05:00;;;;;;;21.97;13.60;;;;;;;16.13;100.00;99429.53;4235293;28;22028;-68
2023/07/29 00:07:27;;;;;;;30.23;14.20;;;;;;;16.13;100.00;99429.53;4237381;28;26003;-69
2023/07/29 00:09:54;;;;;;;25.40;12.57;;;;;;;16.14;100.00;99432.06;4239182;28;20340;-69
2023/07/29 00:12:20;;;;;;;31.97;13.60;;;;;;;16.16;100.00;99429.97;4239480;28;20555;-69
2023/07/29 00:14:47;;;;;;;20.87;12.77;;;;;;;16.15;100.00;99433.72;4244222;28;20512;-67
2023/07/29 00:17:13;;;;;;;23.27;12.07;;;;;;;16.12;100.00;99436.03;4241912;28;20231;-69
2023/07/29 00:19:40;;;;;;;29.53;13.90;;;;;;;16.12;100.00;99434.16;4236804;28;20242;-68
2023/07/29 00:22:08;;;;;;;24.90;13.97;;;;;;;16.06;100.00;99447.81;4235403;28;20602;-67
2023/07/29 00:24:35;;;;;;;37.73;15.87;;;;;;;16.03;100.00;99449.06;4227054;28;20228;-67
2023/07/29 00:27:01;;;;;;;28.67;14.60;;;;;;;16.03;100.00;99448.19;4236739;28;20307;-67
2023/07/29 00:29:28;;;;;;;22.80;14.47;;;;;;;16.09;100.00;99450.94;4230094;28;22416;-67
2023/07/29 00:31:55;;;;;;;30.83;16.90;;;;;;;15.97;100.00;99447.16;4238968;28;20242;-68
2023/07/29 00:34:21;;;;;;;36.10;16.13;;;;;;;16.04;100.00;99452.63;4231825;28;20260;-67
2023/07/29 00:36:48;;;;;;;33.87;17.37;;;;;;;16.08;100.00;99456.63;4236811;28;20242;-67
2023/07/29 00:39:14;;;;;;;37.50;17.83;;;;;;;16.04;100.00;99455.34;4254973;28;21758;-68
2023/07/29 00:41:41;;;;;;;35.13;18.03;;;;;;;16.00;100.00;99454.91;4239881;28;21543;-66
2023/07/29 00:44:07;;;;;;;50.93;19.60;;;;;;;15.93;100.00;99454.06;4236041;28;26262;-68
2023/07/29 00:46:35;;;;;;;46.17;18.73;;;;;;;15.95;100.00;99457.44;4252050;28;22771;-68
2023/07/29 00:49:02;;;;;;;55.27;22.77;;;;;;;15.84;100.00;99453.44;4231756;28;20865;-70
2023/07/29 00:51:29;;;;;;;45.73;20.00;;;;;;;15.91;100.00;99457.00;4231980;28;20242;-68
2023/07/29 00:53:56;;;;;;;47.97;22.00;;;;;;;15.97;100.00;99452.63;4220231;28;20242;-70
2023/07/29 00:56:22;;;;;;;53.43;22.10;;;;;;;15.99;100.00;99456.81;4239887;28;20235;-69
2023/07/29 00:58:49;;;;;;;61.53;22.53;;;;;;;15.91;100.00;99462.47;4236308;28;20235;-72
2023/07/29 01:01:16;;;;;;;53.57;22.23;;;;;;;15.98;100.00;99459.75;4235562;28;20289;-67
2023/07/29 01:03:45;;;;;;;77.13;24.63;;;;;;;15.89;100.00;99456.38;4231106;28;20332;-69
2023/07/29 01:06:45;;;;;;;48.33;20.13;;;;;;;15.90;100.00;99465.41;4236410;28;20303;-67
2023/07/29 01:09:54;;;;;;;49.50;22.17;;;;;;;15.86;100.00;99467.72;4242842;28;21788;-66
2023/07/29 01:12:40;;;;;;;58.77;23.57;;;;;;;15.85;100.00;99452.38;4231208;28;20235;-68
2023/07/29 01:15:21;;;;;;;61.13;24.33;;;;;;;15.82;100.00;99461.78;4249618;28;20688;-69
2023/07/29 01:17:53;;;;;;;67.73;23.10;;;;;;;15.84;100.00;99458.88;4246460;28;20281;-67
2023/07/29 01:20:20;;;;;;;58.53;23.60;;;;;;;15.92;100.00;99468.75;4251516;28;20235;-69
2023/07/29 01:22:47;;;;;;;57.80;23.40;;;;;;;15.88;100.00;99467.50;4239408;28;20242;-68
2023/07/29 01:25:13;;;;;;;73.90;24.27;;;;;;;15.87;100.00;99471.28;4234059;28;20235;-71
2023/07/29 01:27:42;;;;;;;65.43;23.23;;;;;;;15.86;100.00;99466.88;4236131;28;20234;-68
2023/07/29 01:30:09;;;;;;;53.83;22.20;;;;;;;15.92;100.00;99468.75;4237534;28;20238;-66
2023/07/29 01:32:52;;;;;;;46.73;19.20;;;;;;;16.03;100.00;99472.78;4234669;28;25312;-68
2023/07/29 01:35:29;;;;;;;64.40;19.63;;;;;;;15.88;100.00;99476.50;4251739;28;20691;-68
2023/07/29 01:38:04;;;;;;;38.90;18.27;;;;;;;15.99;100.00;99480.53;4235990;28;20250;-69
2023/07/29 01:40:31;;;;;;;50.50;18.33;;;;;;;15.86;100.00;99478.63;4210461;28;20317;-70
2023/07/29 01:43:00;;;;;;;44.73;19.27;;;;;;;15.75;100.00;99471.81;4228822;28;20357;-68
2023/07/29 01:45:31;;;;;;;28.93;15.93;;;;;;;15.90;100.00;99477.16;4245665;28;20231;-67
2023/07/29 01:47:59;;;;;;;44.43;17.90;;;;;;;15.89;100.00;99480.94;4244661;28;20267;-68
2023/07/29 01:50:25;;;;;;;32.70;15.73;;;;;;;15.83;100.00;99481.75;4237501;28;21558;-72
2023/07/29 01:52:52;;;;;;;37.23;16.07;;;;;;;15.76;100.00;99489.06;4253195;28;20315;-69
2023/07/29 01:55:18;;;;;;;50.00;18.10;;;;;;;15.63;100.00;99487.13;4243218;28;20886;-69
2023/07/29 01:57:46;;;;;;;49.03;17.53;;;;;;;15.65;100.00;99491.31;4235557;28;20235;-67
2023/07/29 02:00:12;;;;;;;32.57;16.23;;;;;;;15.70;100.00;99501.63;4226503;28;20307;-69
2023/07/29 02:02:39;;;;;;;42.67;17.83;;;;;;;15.59;100.00;99494.88;4220544;28;20623;-68
2023/07/29 02:05:06;;;;;;;41.67;17.73;;;;;;;15.52;100.00;99499.44;4241679;28;20237;-67
2023/07/29 02:07:32;;;;;;;39.57;18.20;;;;;;;15.56;100.00;99495.25;4237700;28;20235;-66
2023/07/29 02:09:59;;;;;;;39.83;16.57;;;;;;;15.62;100.00;99502.66;4240021;28;20916;-71
2023/07/29 02:12:25;;;;;;;39.83;17.70;;;;;;;15.51;100.00;99501.34;4242528;28;20235;-67
2023/07/29 02:14:52;;;;;;;46.73;16.87;;;;;;;15.58;100.00;99503.25;4235538;28;22978;-70
2023/07/29 02:17:19;;;;;;;42.97;17.17;;;;;;;15.50;100.00;99496.94;4232144;28;20557;-68
2023/07/29 02:19:45;;;;;;;31.93;15.77;;;;;;;15.44;100.00;99505.94;4241932;28;20261;-67
2023/07/29 02:22:16;;;;;;;59.73;17.03;;;;;;;15.40;100.00;99506.53;4237287;28;20248;-69
2023/07/29 02:24:43;;;;;;;47.97;17.13;;;;;;;15.41;100.00;99508.22;4246584;28;20725;-66
2023/07/29 02:27:10;;;;;;;23.53;13.73;;;;;;;15.53;100.00;99512.88;4239620;28;20230;-68
2023/07/29 02:29:36;;;;;;;47.43;16.33;;;;;;;15.42;100.00;99510.75;4240471;28;20618;-69
2023/07/29 02:32:03;;;;;;;56.47;16.43;;;;;;;15.31;100.00;99509.44;4234097;28;20417;-68
2023/07/29 02:34:30;;;;;;;26.77;16.43;;;;;;;15.37;100.00;99502.31;4247369;28;21575;-67
2023/07/29 02:36:56;;;;;;;27.23;14.20;;;;;;;15.50;100.00;99510.56;4236623;28;21683;-71
2023/07/29 02:39:24;;;;;;;27.20;14.93;;;;;;;15.42;100.00;99504.44;4237177;28;20257;-69
2023/07/29 02:41:50;;;;;;;21.73;13.33;;;;;;;15.51;100.00;99511.41;4235236;28;20315;-68
2023/07/29 02:44:19;;;;;;;22.53;13.33;;;;;;;15.53;100.00;99506.59;4233054;28;20333;-71
2023/07/29 02:46:46;;;;;;;28.70;14.60;;;;;;;15.48;100.00;99506.38;4243370;28;20228;-68
2023/07/29 02:49:12;;;;;;;42.73;14.30;;;;;;;15.49;100.00;99511.63;4249717;28;20295;-69
2023/07/29 02:51:39;;;;;;;48.90;13.73;;;;;;;15.41;100.00;99510.94;4233561;28;22729;-71
2023/07/29 02:54:05;;;;;;;55.17;13.93;;;;;;;15.41;100.00;99521.84;4246548;28;20610;-67
2023/07/29 02:56:32;;;;;;;96.07;14.30;;;;;;;15.18;100.00;99521.09;4237088;28;22003;-71
2023/07/29 02:59:00;;;;;;;80.33;14.83;;;;;;;15.20;100.00;99515.44;4237592;28;20258;-68
2023/07/29 03:01:27;;;;;;;101.33;14.57;;;;;;;15.21;100.00;99520.69;4246881;28;20238;-69
2023/07/29 03:03:54;;;;;;;112.17;15.70;;;;;;;15.12;100.00;99524.63;4247931;28;20269;-68
2023/07/29 03:06:20;;;;;;;19.17;12.43;;;;;;;15.19;100.00;99524.66;4249470;28;20484;-69
2023/07/29 03:08:47;;;;;;;66.17;13.60;;;;;;;15.12;100.00;99526.50;4240243;28;20242;-69
2023/07/29 03:11:15;;;;;;;16.70;11.30;;;;;;;15.23;100.00;99533.25;4233655;28;20235;-72
2023/07/29 03:13:42;;;;;;;34.33;15.03;;;;;;;15.23;100.00;99528.66;4226146;28;21761;-69
2023/07/29 03:16:15;;;;;;;22.57;13.57;;;;;;;15.41;100.00;99528.16;4228834;28;20245;-69
2023/07/29 03:18:43;;;;;;;69.30;15.87;;;;;;;15.37;100.00;99533.16;4240738;28;21267;-68
2023/07/29 03:21:10;;;;;;;21.47;12.50;;;;;;;15.49;100.00;99540.75;4248602;28;20548;-67
2023/07/29 03:23:38;;;;;;;49.37;14.20;;;;;;;15.30;100.00;99529.56;4244240;28;21749;-67
2023/07/29 03:26:10;;;;;;;25.47;12.97;;;;;;;15.39;100.00;99534.84;4246514;28;20242;-71
2023/07/29 03:28:41;;;;;;;16.27;11.50;;;;;;;15.53;100.00;99536.59;4235724;28;22240;-66
2023/07/29 03:31:09;;;;;;;34.97;11.23;;;;;;;15.39;100.00;99543.03;4239215;28;23339;-68
2023/07/29 03:33:35;;;;;;;21.20;10.03;;;;;;;15.38;100.00;99547.63;4235464;28;20242;-67
2023/07/29 03:36:02;;;;;;;36.70;12.10;;;;;;;15.19;100.00;99541.88;4241378;28;22625;-68
2023/07/29 03:38:29;;;;;;;41.73;13.17;;;;;;;15.14;100.00;99543.50;4234116;28;20296;-68
2023/07/29 03:40:56;;;;;;;87.07;14.17;;;;;;;15.05;100.00;99542.81;4255773;28;22018;-68
2023/07/29 03:43:23;;;;;;;101.73;13.40;;;;;;;15.00;100.00;99545.28;4244934;28;20226;-68
2023/07/29 03:45:49;;;;;;;37.47;12.13;;;;;;;15.19;100.00;99552.78;4249754;28;20266;-72
2023/07/29 03:48:16;;;;;;;83.70;16.67;;;;;;;15.36;100.00;99553.28;4267990;28;20306;-68
2023/07/29 03:50:43;;;;;;;139.10;21.70;;;;;;;15.23;100.00;99546.91;4246864;28;20239;-67
2023/07/29 03:53:09;;;;;;;263.70;23.87;;;;;;;15.07;100.00;99554.34;4247506;28;20235;-67
2023/07/29 03:55:36;;;;;;;109.33;16.07;;;;;;;15.10;100.00;99545.78;4257192;28;21014;-68
2023/07/29 03:58:03;;;;;;;40.53;11.63;;;;;;;15.13;100.00;99553.56;4220977;28;20239;-67
2023/07/29 04:00:30;;;;;;;43.63;11.20;;;;;;;14.97;100.00;99557.41;4259413;28;21115;-67
2023/07/29 04:02:57;;;;;;;17.43;10.00;;;;;;;15.11;100.00;99554.78;4235253;28;20385;-68
2023/07/29 04:05:24;;;;;;;12.80;8.20;;;;;;;15.33;100.00;99561.84;4235824;28;20307;-68
2023/07/29 04:07:52;;;;;;;41.67;12.60;;;;;;;15.37;100.00;99562.28;4239116;28;22781;-70
2023/07/29 04:10:18;;;;;;;57.57;12.03;;;;;;;15.35;100.00;99558.94;4224341;28;20649;-69
2023/07/29 04:12:45;;;;;;;11.20;8.50;;;;;;;15.45;100.00;99564.03;4222490;28;21770;-69
2023/07/29 04:15:11;;;;;;;37.93;8.10;;;;;;;15.40;100.00;99559.19;4246686;28;20249;-70
2023/07/29 04:17:38;;;;;;;49.57;8.60;;;;;;;15.34;100.00;99565.44;4239995;28;21756;-68
2023/07/29 04:20:05;;;;;;;15.50;8.10;;;;;;;15.55;100.00;99569.97;4241744;28;21453;-69
2023/07/29 04:22:31;;;;;;;8.93;7.27;;;;;;;15.80;100.00;99573.03;4242613;28;21071;-68
2023/07/29 04:24:59;;;;;;;14.63;7.93;;;;;;;15.93;100.00;99575.03;4231906;28;20226;-71
2023/07/29 04:27:26;;;;;;;12.10;8.10;;;;;;;16.09;98.72;99579.28;4231346;28;20223;-67
2023/07/29 04:29:52;;;;;;;16.40;8.27;;;;;;;15.90;98.74;99578.16;4229895;28;20591;-68
2023/07/29 04:32:19;;;;;;;13.50;7.20;;;;;;;15.89;98.56;99578.34;4227836;28;20234;-68
2023/07/29 04:34:46;;;;;;;11.87;7.43;;;;;;;15.82;99.37;99589.19;4230735;28;21861;-67
2023/07/29 04:37:12;;;;;;;55.57;8.30;;;;;;;15.79;98.85;99586.88;4239801;28;20235;-70
2023/07/29 04:39:39;;;;;;;19.97;7.50;;;;;;;15.59;100.00;99595.81;4233177;28;20230;-70
2023/07/29 04:42:06;;;;;;;15.47;7.30;;;;;;;15.94;99.17;99597.69;4230056;28;21620;-67
2023/07/29 04:44:32;;;;;;;14.13;7.57;;;;;;;15.83;100.00;99607.28;4241552;28;21421;-68
2023/07/29 04:46:59;;;;;;;12.70;7.70;;;;;;;16.23;99.04;99606.63;4241536;28;20270;-69
2023/07/29 04:49:26;;;;;;;7.77;6.50;;;;;;;16.22;99.01;99607.66;4228123;28;20232;-69
2023/07/29 04:51:52;;;;;;;9.30;7.37;;;;;;;16.56;96.73;99606.69;4233490;28;20234;-67
2023/07/29 04:54:20;;;;;;;33.67;7.90;;;;;;;16.25;96.45;99610.00;4231915;28;20739;-67
2023/07/29 04:56:47;;;;;;;9.63;6.50;;;;;;;16.30;96.79;99616.53;4234876;28;20242;-68
2023/07/29 04:59:13;;;;;;;14.40;7.97;;;;;;;16.41;96.16;99617.81;4244901;28;20308;-69
2023/07/29 05:01:42;;;;;;;10.37;7.17;;;;;;;16.49;95.38;99622.22;4237821;28;20249;-66
2023/07/29 05:04:09;;;;;;;14.97;7.63;;;;;;;16.17;96.74;99621.91;4248957;28;20231;-68
2023/07/29 05:06:36;;;;;;;15.17;7.77;;;;;;;16.28;95.53;99624.06;4229617;28;20245;-68
2023/07/29 05:09:14;;;;;;;21.73;7.37;;;;;;;15.90;97.57;99627.28;4234790;28;25381;-69
2023/07/29 05:11:40;;;;;;;35.63;8.97;;;;;;;15.73;98.67;99623.16;4239686;28;20235;-69
2023/07/29 05:14:08;;;;;;;19.90;8.50;;;;;;;15.75;99.67;99630.09;4249491;28;20743;-67
2023/07/29 05:16:35;;;;;;;16.57;7.87;;;;;;;16.01;99.82;99625.84;4229736;28;22381;-69
2023/07/29 05:19:02;;;;;;;25.10;8.67;;;;;;;16.16;97.26;99626.56;4244697;28;20301;-69
2023/07/29 05:21:29;;;;;;;24.87;8.40;;;;;;;16.11;97.91;99630.94;4237640;28;23225;-66
2023/07/29 05:23:56;;;;;;;13.47;8.80;;;;;;;16.27;96.94;99630.56;4234962;28;20239;-67
2023/07/29 05:26:23;;;;;;;16.33;9.20;;;;;;;16.75;96.10;99621.44;4232280;28;20705;-69
2023/07/29 05:28:50;;;;;;;14.17;8.97;;;;;;;17.04;92.43;99624.03;4233599;28;21344;-66
2023/07/29 05:31:16;;;;;;;14.10;9.70;;;;;;;16.79;92.23;99622.72;4231909;28;20340;-68
2023/07/29 05:33:43;;;;;;;14.10;8.90;;;;;;;16.72;93.44;99626.47;4238631;28;20424;-72
2023/07/29 05:36:10;;;;;;;13.73;10.03;;;;;;;16.75;92.90;99623.34;4252554;28;20221;-67
2023/07/29 05:38:36;;;;;;;12.23;9.07;;;;;;;16.89;92.17;99630.50;4232644;28;20238;-67
2023/07/29 05:41:03;;;;;;;14.33;10.03;;;;;;;17.01;92.09;99622.56;4208950;28;20309;-67
2023/07/29 05:43:29;;;;;;;17.23;10.80;;;;;;;17.07;91.46;99624.44;4231278;28;20238;-68
2023/07/29 05:45:56;;;;;;;15.23;9.87;;;;;;;17.49;90.65;99624.22;4218899;28;21908;-69
2023/07/29 05:48:22;;;;;;;17.43;12.03;;;;;;;17.68;88.46;99632.56;4237206;28;20230;-69
2023/07/29 05:50:50;;;;;;;16.13;11.33;;;;;;;17.80;87.04;99628.16;4219910;28;20311;-69
2023/07/29 05:53:16;;;;;;;17.07;12.37;;;;;;;17.70;86.92;99630.47;4262015;28;20235;-69
2023/07/29 05:55:43;;;;;;;15.77;11.97;;;;;;;17.88;86.08;99625.19;4234419;28;20337;-69
2023/07/29 05:58:10;;;;;;;16.23;11.60;;;;;;;17.81;85.11;99621.63;4232892;28;20242;-67
2023/07/29 06:00:36;;;;;;;17.23;12.30;;;;;;;17.87;84.83;99631.69;4236417;28;21333;-70
2023/07/29 06:03:03;;;;;;;18.50;12.57;;;;;;;17.76;85.37;99639.72;4234505;28;20310;-67
2023/07/29 06:05:29;;;;;;;20.60;13.70;;;;;;;17.85;85.28;99652.16;4221020;28;20347;-67
2023/07/29 06:07:56;;;;;;;14.70;10.97;;;;;;;18.10;84.34;99652.31;4240953;28;22406;-69
2023/07/29 06:10:23;;;;;;;19.10;13.47;;;;;;;17.62;86.57;99656.19;4234585;28;20312;-66
2023/07/29 06:12:49;;;;;;;17.97;12.60;;;;;;;17.67;86.01;99656.38;4233243;28;26278;-67
2023/07/29 06:15:16;;;;;;;21.30;12.77;;;;;;;17.84;85.57;99664.97;4237012;28;20295;-68
2023/07/29 06:17:43;;;;;;;14.77;11.10;;;;;;;18.29;84.36;99657.91;4233697;28;22427;-68
2023/07/29 06:20:10;;;;;;;19.77;12.60;;;;;;;17.98;86.48;99664.97;4235557;28;20238;-68
2023/07/29 06:22:36;;;;;;;17.57;11.83;;;;;;;18.20;85.50;99662.78;4230135;28;20255;-71
2023/07/29 06:25:03;;;;;;;19.03;12.67;;;;;;;18.64;82.05;99663.84;4226470;28;21210;-72
2023/07/29 06:27:30;;;;;;;17.07;12.13;;;;;;;18.78;81.11;99669.25;4232540;28;20230;-69
2023/07/29 06:29:56;;;;;;;19.60;13.73;;;;;;;18.63;82.27;99680.53;4237166;28;20235;-69
2023/07/29 06:32:26;;;;;;;18.27;13.47;;;;;;;18.27;82.72;99673.75;4249284;28;20509;-72
2023/07/29 06:34:54;;;;;;;19.33;13.23;;;;;;;18.51;82.46;99683.94;4233007;28;20306;-68
2023/07/29 06:37:21;;;;;;;19.77;14.10;;;;;;;18.30;83.76;99681.50;4246991;28;20243;-71
2023/07/29 06:39:48;;;;;;;17.27;12.37;;;;;;;18.81;81.87;99682.53;4243396;28;22647;-70
2023/07/29 06:42:14;;;;;;;22.37;16.63;;;;;;;18.48;82.40;99689.00;4222994;28;20767;-71
2023/07/29 06:44:41;;;;;;;19.97;15.57;;;;;;;18.74;82.21;99690.78;4235685;28;20244;-54
2023/07/29 06:47:08;;;;;;;21.07;13.97;;;;;;;18.80;81.37;99681.69;4225620;28;20231;-61
2023/07/29 06:49:35;;;;;;;18.13;13.50;;;;;;;19.22;79.76;99683.94;4224101;28;20223;-62
2023/07/29 06:52:01;;;;;;;18.83;12.77;;;;;;;18.88;80.92;99691.56;4222942;28;20550;-58
2023/07/29 06:54:28;;;;;;;17.47;13.27;;;;;;;19.13;79.77;99683.38;4230441;28;20300;-62
2023/07/29 06:56:54;;;;;;;16.93;12.07;;;;;;;20.19;74.58;99681.78;4229948;28;22362;-62
2023/07/29 06:59:21;;;;;;;15.27;10.80;;;;;;;20.48;74.25;99685.66;4210515;28;20238;-75
2023/07/29 07:01:48;;;;;;;13.57;9.03;;;;;;;20.85;72.95;99679.25;4237551;28;20272;-71
2023/07/29 07:04:14;;;;;;;14.70;10.30;;;;;;;20.43;73.44;99686.34;4259072;28;21063;-71
2023/07/29 07:06:41;;;;;;;13.00;9.60;;;;;;;20.78;71.26;99695.00;4228044;28;20355;-72
2023/07/29 07:09:08;;;;;;;14.37;10.60;;;;;;;20.63;72.50;99689.91;4231821;28;21125;-72
2023/07/29 07:11:34;;;;;;;16.60;10.07;;;;;;;20.99;70.80;99686.25;4235610;28;20235;-72
2023/07/29 07:14:01;;;;;;;10.57;8.70;;;;;;;23.35;63.75;99686.13;4237552;28;20251;-71
2023/07/29 07:16:30;;;;;;;9.30;7.63;;;;;;;25.18;56.99;99685.47;4210620;28;20238;-71
2023/07/29 07:18:57;;;;;;;7.67;6.53;;;;;;;27.38;50.34;99674.88;4236780;28;20674;-72
2023/07/29 07:21:24;;;;;;;11.77;7.73;;;;;;;26.83;50.45;99670.66;4237633;28;25126;-72
2023/07/29 07:23:51;;;;;;;9.20;7.77;;;;;;;27.73;48.02;99676.81;4217701;28;20333;-71
2023/07/29 07:26:17;;;;;;;9.50;7.33;;;;;;;28.53;45.91;99674.34;4249136;28;21194;-69
2023/07/29 07:28:44;;;;;;;9.93;6.53;;;;;;;28.90;45.58;99673.03;4236927;28;20235;-71
2023/07/29 07:31:11;;;;;;;10.98;6.95;;;;;;;29.12;45.59;99666.22;4248803;28;20637;-72
2023/07/29 07:33:37;;;;;;;8.20;6.88;;;;;;;28.91;45.09;99674.72;4246307;28;20875;-73
2023/07/29 07:36:04;;;;;;;10.93;7.55;;;;;;;30.60;41.28;99673.38;4261731;28;21041;-68
2023/07/29 07:38:31;;;;;;;12.30;6.68;;;;;;;31.17;39.64;99665.00;4243611;28;20509;-70
2023/07/29 07:40:57;;;;;;;10.82;7.93;;;;;;;30.51;40.84;99664.84;4254125;28;20503;-72
2023/07/29 07:43:25;;;;;;;9.00;6.30;;;;;;;30.31;42.61;99661.19;4261896;28;22507;-69
2023/07/29 07:45:58;;;;;;;11.15;7.10;;;;;;;27.92;47.88;99674.28;4238359;28;20281;-70
2023/07/29 07:48:27;;;;;;;12.80;6.20;;;;;;;27.96;47.95;99671.75;4242133;28;25447;-71
2023/07/29 07:50:53;;;;;;;9.18;6.35;;;;;;;28.21;47.68;99670.06;4257390;28;20541;-70
2023/07/29 07:53:20;;;;;;;10.43;6.50;;;;;;;26.73;50.20;99681.72;4255805;28;20227;-70
2023/07/29 07:55:47;;;;;;;13.77;8.23;;;;;;;26.80;49.77;99668.44;4242336;28;20235;-73
2023/07/29 07:58:14;;;;;;;12.57;8.38;;;;;;;25.51;53.78;99678.84;4263723;28;20277;-79
2023/07/29 08:00:40;;;;;;;11.27;7.85;;;;;;;25.14;54.69;99666.63;4292688;28;20341;-72
2023/07/29 08:03:07;;;;;;;12.77;6.80;;;;;;;25.09;55.32;99666.56;4285789;28;20291;-76
2023/07/29 08:05:34;;;;;;;12.47;8.83;;;;;;;23.98;57.60;99672.16;4228268;28;20235;-72
2023/07/29 08:08:01;;;;;;;20.23;10.10;;;;;;;23.47;59.02;99666.72;4230619;28;20825;-71
2023/07/29 08:10:27;;;;;;;13.87;8.13;;;;;;;23.53;59.59;99671.22;4254563;28;25324;-70
2023/07/29 08:12:54;;;;;;;11.60;8.20;;;;;;;23.91;56.92;99665.97;4251052;28;20234;-69
2023/07/29 08:15:21;;;;;;;11.60;8.20;;;;;;;23.54;58.76;99664.63;4269871;28;20243;-73
2023/07/29 08:17:48;;;;;;;10.50;7.00;;;;;;;23.55;57.24;99665.44;4279935;28;22364;-70
2023/07/29 08:20:15;;;;;;;9.30;5.43;;;;;;;23.02;57.73;99670.34;4280060;28;20256;-69
2023/07/29 08:22:41;;;;;;;9.03;5.73;;;;;;;23.88;55.85;99660.97;4258987;28;20311;-70
2023/07/29 08:25:08;;;;;;;10.63;6.30;;;;;;;24.20;54.79;99665.84;4255985;28;25743;-70
2023/07/29 08:27:35;;;;;;;7.40;5.73;;;;;;;23.97;54.54;99658.59;4244225;28;20233;-70
2023/07/29 08:30:02;;;;;;;9.97;6.80;;;;;;;23.20;58.16;99661.03;4221894;28;20336;-72
2023/07/29 08:32:29;;;;;;;11.87;7.53;;;;;;;23.69;57.81;99661.22;4253040;28;25303;-70
2023/07/29 08:34:55;;;;;;;10.37;6.90;;;;;;;24.12;56.38;99661.59;4235066;28;20485;-73
2023/07/29 08:37:22;;;;;;;9.50;6.70;;;;;;;24.43;55.30;99653.66;4261134;28;22042;-69
2023/07/29 08:39:49;;;;;;;12.23;7.20;;;;;;;24.45;56.13;99658.94;4277618;28;20244;-68
2023/07/29 08:42:19;;;;;;;8.43;6.40;;;;;;;24.83;55.18;99655.25;4259997;28;20335;-71
2023/07/29 08:44:49;;;;;;;8.07;4.90;;;;;;;25.46;50.83;99653.88;4263125;28;22301;-69
2023/07/29 08:47:16;;;;;;;7.70;4.30;;;;;;;25.11;50.61;99652.47;4260893;28;21918;-72
2023/07/29 08:49:44;;;;;;;7.27;4.43;;;;;;;25.77;49.28;99654.91;4240771;28;21640;-69
2023/07/29 08:52:11;;;;;;;8.03;4.67;;;;;;;25.67;49.22;99652.09;4241142;28;21162;-69
2023/07/29 08:54:38;;;;;;;6.87;3.67;;;;;;;25.26;50.20;99657.28;4233009;28;21168;-72
2023/07/29 08:57:06;;;;;;;5.23;4.07;;;;;;;24.70;52.47;99660.34;4226222;28;20334;-73
2023/07/29 08:59:32;;;;;;;6.23;4.17;;;;;;;24.01;55.19;99655.09;4235967;28;20235;-72
2023/07/29 09:01:59;;;;;;;9.13;4.03;;;;;;;24.14;56.46;99650.25;4255143;28;20392;-71
2023/07/29 09:04:26;;;;;;;7.23;3.70;;;;;;;24.67;54.19;99650.66;4243141;28;22103;-69
2023/07/29 09:06:53;;;;;;;5.43;3.33;;;;;;;25.11;51.68;99655.22;4256173;28;21617;-74
2023/07/29 09:09:21;;;;;;;7.03;3.03;;;;;;;23.71;53.84;99648.00;4245199;28;22300;-71
2023/07/29 09:11:48;;;;;;;3.80;2.80;;;;;;;24.43;53.00;99653.66;4251518;28;20364;-73
2023/07/29 09:14:15;;;;;;;3.30;2.83;;;;;;;24.08;54.85;99645.75;4230632;28;20236;-72
2023/07/29 09:16:42;;;;;;;4.27;3.03;;;;;;;24.34;54.04;99652.44;4240253;28;23721;-69
2023/07/29 09:19:08;;;;;;;6.73;3.03;;;;;;;23.20;57.11;99639.75;4226549;28;20329;-70
2023/07/29 09:21:39;;;;;;;5.63;3.23;;;;;;;22.95;57.20;99652.03;4235606;28;20237;-71
2023/07/29 09:24:07;;;;;;;3.63;2.53;;;;;;;22.97;56.41;99643.47;4234593;28;20412;-71
2023/07/29 09:26:34;;;;;;;3.73;2.40;;;;;;;24.00;52.16;99644.28;4256029;28;20446;-70
2023/07/29 09:29:02;;;;;;;4.03;2.33;;;;;;;24.57;51.73;99644.97;4242719;28;20239;-71
2023/07/29 09:31:29;;;;;;;5.43;2.30;;;;;;;24.86;50.42;99648.34;4234611;28;20307;-70
2023/07/29 09:34:01;;;;;;;5.87;2.37;;;;;;;24.62;50.46;99645.03;4242294;28;20234;-55
2023/07/29 09:36:30;;;;;;;3.20;2.47;;;;;;;24.49;51.13;99646.28;4233990;28;21428;-72
2023/07/29 09:38:57;;;;;;;4.67;2.73;;;;;;;23.88;52.25;99644.38;4226753;28;22679;-71
2023/07/29 09:41:26;;;;;;;3.43;2.30;;;;;;;24.09;53.02;99651.06;4224181;28;20544;-71
2023/07/29 09:43:59;;;;;;;3.97;2.87;;;;;;;24.05;52.82;99647.13;4230854;28;20283;-71
2023/07/29 09:46:35;;;;;;;5.23;2.90;;;;;;;24.71;50.33;99649.00;4222601;28;20232;-71
2023/07/29 09:49:05;;;;;;;4.60;2.90;;;;;;;24.77;51.52;99644.38;4239644;28;20242;-71
2023/07/29 09:51:31;;;;;;;8.47;5.17;;;;;;;24.73;51.05;99643.25;4229966;28;20865;-71
2023/07/29 09:54:02;;;;;;;14.33;7.50;;;;;;;24.05;52.67;99641.59;4221950;28;21711;-73
2023/07/29 09:56:29;;;;;;;4.57;3.23;;;;;;;24.41;50.74;99630.13;4235656;28;22010;-70
2023/07/29 09:58:57;;;;;;;3.37;2.43;;;;;;;24.68;48.60;99632.94;4232439;28;20241;-70
2023/07/29 10:01:25;;;;;;;4.63;2.33;;;;;;;24.41;50.55;99632.91;4229852;28;20272;-70
2023/07/29 10:03:51;;;;;;;3.53;2.00;;;;;;;24.62;48.80;99623.72;4233947;28;21908;-71
2023/07/29 10:06:18;;;;;;;2.87;2.07;;;;;;;23.85;51.69;99611.69;4248440;28;20273;-71
2023/07/29 10:08:45;;;;;;;2.70;1.90;;;;;;;24.28;50.31;99612.00;4228204;28;20331;-72
2023/07/29 10:11:12;;;;;;;3.83;2.00;;;;;;;24.58;49.24;99624.50;4220546;28;20235;-69
2023/07/29 10:13:38;;;;;;;2.53;1.80;;;;;;;24.29;51.08;99624.72;4248829;28;20235;-70
2023/07/29 10:16:05;;;;;;;4.97;3.17;;;;;;;24.53;52.34;99631.66;4234672;28;20697;-64
2023/07/29 10:18:33;;;;;;;2.43;2.10;;;;;;;24.40;51.67;99632.03;4223750;28;20232;-66
2023/07/29 10:21:00;;;;;;;2.67;1.93;;;;;;;24.35;52.39;99632.84;4234404;28;20243;-66
2023/07/29 10:23:30;;;;;;;5.47;2.20;;;;;;;24.32;52.50;99625.06;4226755;28;20401;-65
2023/07/29 10:26:06;;;;;;;5.37;2.10;;;;;;;24.17;52.77;99631.22;4224976;28;20463;-66
2023/07/29 10:28:34;;;;;;;6.23;2.30;;;;;;;24.08;51.58;99623.63;4219976;28;20909;-65
2023/07/29 10:31:03;;;;;;;2.83;1.93;;;;;;;24.03;51.90;99622.50;4252562;28;20243;-65
2023/07/29 10:33:31;;;;;;;2.27;1.80;;;;;;;24.67;48.95;99622.97;4228564;28;23602;-65
2023/07/29 10:35:59;;;;;;;2.97;1.70;;;;;;;24.93;48.88;99624.06;4226602;28;20337;-65
2023/07/29 10:38:26;;;;;;;4.50;2.00;;;;;;;25.13;48.27;99628.09;4232361;28;22754;-66
2023/07/29 10:40:56;;;;;;;2.73;2.00;;;;;;;24.67;49.26;99618.25;4246323;28;20230;-68
2023/07/29 10:43:29;;;;;;;3.20;2.07;;;;;;;24.51;50.28;99613.63;4248264;28;20590;-65
2023/07/29 10:45:56;;;;;;;2.33;1.93;;;;;;;24.82;48.97;99619.50;4222862;28;22843;-67
2023/07/29 10:48:42;;;;;;;3.40;1.80;;;;;;;24.77;48.91;99614.78;4231397;28;22842;-65
2023/07/29 10:51:41;;;;;;;3.90;1.70;;;;;;;24.49;50.15;99610.31;4236789;28;20236;-66
2023/07/29 10:54:14;;;;;;;4.13;1.50;;;;;;;24.48;49.16;99606.69;4228286;28;20246;-66
2023/07/29 10:56:43;;;;;;;2.90;2.40;;;;;;;24.29;51.33;99608.13;4228814;28;21119;-68
2023/07/29 10:59:12;;;;;;;2.43;1.70;;;;;;;24.05;51.93;99600.97;4232835;28;21121;-64
2023/07/29 11:01:40;;;;;;;3.97;2.00;;;;;;;24.08;51.26;99604.28;4231425;28;21628;-66
2023/07/29 11:04:25;;;;;;;3.00;1.80;;;;;;;24.20;51.21;99605.81;4228656;28;21260;-68
2023/07/29 11:07:04;;;;;;;3.83;2.40;;;;;;;24.33;51.34;99617.56;4270520;28;20223;-64
2023/07/29 11:09:59;;;;;;;3.00;2.10;;;;;;;24.47;50.48;99609.72;4229201;28;20250;-69
2023/07/29 11:12:51;;;;;;;3.37;2.20;;;;;;;24.33;51.58;99610.13;4229229;28;20394;-66
2023/07/29 11:15:28;;;;;;;2.03;1.53;;;;;;;24.47;49.15;99601.41;4270235;28;20256;-64
2023/07/29 11:17:57;;;;;;;2.70;1.70;;;;;;;24.95;49.19;99596.09;4249230;28;20281;-66
2023/07/29 11:20:32;;;;;;;2.93;1.73;;;;;;;24.74;50.33;99589.53;4237805;28;20248;-64
2023/07/29 11:23:01;;;;;;;5.70;1.67;;;;;;;24.79;49.26;99582.13;4244614;28;20230;-67